Kezdőlap
METAR-TAF:

METAR-TAF

Repülőterek :

Charlotte, Michigan, Amerikai Egyesült Államok

földrajzi szélesség: 42-34-28N, földrajzi hosszúság: 084-48-41W, magasság: 271 m

Jelenlegi meteorológiai megfigyelések

A jelentés 19 perccel ezelõtt készült, 09:15 UTC
Dél-délnyugati szél 1 kt
Hőmérséklet 14°C
Páratartalom 94%
Légköri nyomás 1019 hPa
Látótávolság: 9.7 km
Derült ég
Párásság

METAR: KFPK 210915Z AUTO 20001KT 6SM BR CLR 14/13 A3010 RMK AO2

Idő: 05:34 (09:34 UTC)


TAF: hiányzik

Meteorológiai megfigyelések és előrejelzések több, mint 4000 repülőtéren (METAR és TAF jelentéseket).

A térképen piros és sárga pontok jelzik az elérhető meteorológiai állomásokat.

Mozgassa az egeret a pont fölött, hogy megjelenjen az állomás neve.

Azután kattintson az időjárási megfigyelések és előrejelzések megtekintéséhez.

A térkép megváltoztatása: kattintson a fekete keresztel jelölt zöld gombra ráközelítéshez, a vonallal jelölt zöld gombra távolításhoz, vagy a zöld nyilakra a szomszédos térképek eléréséhez.


METAR-TAF: